KCGC

Details ICAO KCGC
Name Crystal River
Region United States
Timezone America/New_York (UTC-5.0)
Plans Departing 3
Arriving 3
Stats Elevation 9 ft / 3 m (AMSL)
Location 28.867930° -82.575146°
Runways 2
Magnetic Variation 5.656° W
Sunrise 2017-12-12 12:15:44 UTC / 2017-12-12 07:15:44 Local
Sunset 2017-12-12 22:35:24 UTC / 2017-12-12 17:35:24 Local
Advertisement - Login to hide

Runways

ID Width Length Bearing (true) Bearing (mag) Surface Threshold Offset Overrun Length
09 75 ft / 23 m 4,547 ft / 1,386 m 90.52° 96.18° Asphalt 0 ft / 0 m 0 ft / 0 m
18 100 ft / 30 m 3,041 ft / 927 m 180.00° 185.66° Grass 517 ft / 158 m 0 ft / 0 m
27 75 ft / 23 m 4,547 ft / 1,386 m 270.53° 276.19° Asphalt 0 ft / 0 m 0 ft / 0 m
36 100 ft / 30 m 3,041 ft / 927 m 0.00° 5.66° Grass 840 ft / 256 m 0 ft / 0 m

Map

Weather


0- 5 10 15 20 25 30 35+ Temperature / ° C

Clouds and Precipitation
Forecast for 2017-12-12 06:00 UTC. Updated 2 hours ago

Ground ~20,000 ft ~40,000 ft Winds

METAR

KCGC 120635Z AUTO 00000KT 10SM CLR 03/02 A3010 RMK AO2

TAF

Not found

Frequencies

Recorded 118.32 MHz AWOS 3
Approach 118.60 MHz JACKSONVILLE APP/DEP
Unicom 122.72 MHz CTAF/UNICOM
Warning: Do not use this data for real-world aviation or navigation. No guarantee of current accuracy is given.